Time;durP1;ratioP1;P1;durP2;ratioP2;P2;SDS_P1;SDS_P2;PMS_P1;PMS_P2;Temp;Humidity;BMP_temperature;BMP_pressure;BME280_temperature;BME280_humidity;BME280_pressure;Samples;Min_cycle;Max_cycle;Signal;HPM_P1;HPM_P2
2022/04/14 00:01:56;;;;;;;25.20;13.18;;;;;;;13.70;66.18;102073.56;4958443;28;20054;-60
2022/04/14 00:04:21;;;;;;;22.30;13.40;;;;;;;13.70;66.20;102068.34;4940971;28;20045;-60
2022/04/14 00:06:47;;;;;;;26.05;12.98;;;;;;;13.67;66.41;102079.63;4957664;28;20137;-59
2022/04/14 00:09:12;;;;;;;25.05;13.82;;;;;;;13.64;66.30;102078.69;4942208;28;20619;-61
2022/04/14 00:11:38;;;;;;;23.35;13.02;;;;;;;13.63;66.38;102077.81;4956274;28;20805;-60
2022/04/14 00:14:04;;;;;;;26.67;13.60;;;;;;;13.60;66.46;102080.34;4963534;28;20121;-60
2022/04/14 00:16:30;;;;;;;29.02;12.85;;;;;;;13.61;66.71;102076.88;4961746;28;20101;-60
2022/04/14 00:18:56;;;;;;;26.45;14.20;;;;;;;13.55;66.16;102082.00;4952727;28;20054;-59
2022/04/14 00:21:22;;;;;;;25.40;13.55;;;;;;;13.50;66.43;102073.16;4961515;28;20101;-59
2022/04/14 00:23:47;;;;;;;27.73;14.13;;;;;;;13.48;66.72;102072.25;4957678;28;20498;-60
2022/04/14 00:26:12;;;;;;;25.35;14.35;;;;;;;13.46;66.71;102079.19;4950984;28;20030;-60
2022/04/14 00:28:38;;;;;;;27.42;13.90;;;;;;;13.42;66.99;102066.88;4950406;28;20077;-59
2022/04/14 00:31:04;;;;;;;30.17;13.40;;;;;;;13.44;66.41;102065.19;4951869;28;20062;-58
2022/04/14 00:33:30;;;;;;;26.50;14.52;;;;;;;13.43;66.62;102062.53;4959673;28;20077;-59
2022/04/14 00:35:55;;;;;;;24.13;13.18;;;;;;;13.44;66.52;102067.78;4944631;28;20072;-59
2022/04/14 00:38:21;;;;;;;25.13;13.50;;;;;;;13.42;66.56;102066.88;4960994;28;20066;-58
2022/04/14 00:40:48;;;;;;;29.02;14.68;;;;;;;13.39;66.98;102062.47;4951059;28;20557;-58
2022/04/14 00:43:13;;;;;;;26.45;14.43;;;;;;;13.38;66.65;102067.66;4940740;28;20458;-59
2022/04/14 00:45:39;;;;;;;29.80;15.63;;;;;;;13.38;66.82;102059.81;4961124;28;20643;-59
2022/04/14 00:48:04;;;;;;;29.23;15.32;;;;;;;13.44;66.62;102062.56;4957312;28;20050;-60
2022/04/14 00:50:29;;;;;;;30.33;15.32;;;;;;;13.39;66.47;102057.22;4960617;28;20061;-59
2022/04/14 00:52:55;;;;;;;29.05;14.95;;;;;;;13.36;66.50;102064.13;4956874;28;20035;-59
2022/04/14 00:55:20;;;;;;;29.25;14.60;;;;;;;13.31;66.50;102063.16;4949501;28;20054;-59
2022/04/14 00:57:46;;;;;;;29.52;14.10;;;;;;;13.28;66.50;102064.00;4959357;28;20042;-58
2022/04/14 01:00:12;;;;;;;28.88;14.48;;;;;;;13.23;66.83;102065.63;4962222;28;20402;-60
2022/04/14 01:02:38;;;;;;;26.33;14.05;;;;;;;13.20;66.52;102062.94;4954439;28;20195;-59
2022/04/14 01:05:04;;;;;;;25.58;14.15;;;;;;;13.16;66.96;102061.09;4951105;28;20484;-59
2022/04/14 01:07:32;;;;;;;25.10;13.88;;;;;;;13.15;66.77;102069.81;4955937;28;20054;-58
2022/04/14 01:09:58;;;;;;;28.02;14.90;;;;;;;13.11;67.17;102070.56;4958443;28;20078;-64
2022/04/14 01:12:24;;;;;;;30.58;15.43;;;;;;;13.09;67.09;102071.38;4955479;28;20141;-59
2022/04/14 01:14:49;;;;;;;27.92;14.82;;;;;;;13.08;67.08;102067.88;4951939;28;20073;-61
2022/04/14 01:17:15;;;;;;;24.90;14.57;;;;;;;13.07;67.00;102075.69;4955300;28;20053;-60
2022/04/14 01:19:41;;;;;;;24.77;14.60;;;;;;;13.07;67.04;102076.56;4960064;28;20042;-60
2022/04/14 01:22:08;;;;;;;22.80;12.95;;;;;;;13.04;66.76;102079.13;4961027;28;20221;-59
2022/04/14 01:24:34;;;;;;;26.65;12.88;;;;;;;13.02;66.40;102075.59;4955326;28;20049;-59
2022/04/14 01:27:00;;;;;;;22.55;12.80;;;;;;;12.98;66.87;102073.75;4931059;28;20047;-61
2022/04/14 01:29:27;;;;;;;22.77;13.18;;;;;;;12.93;66.79;102075.38;4954815;28;20174;-59
2022/04/14 01:31:54;;;;;;;21.90;12.82;;;;;;;12.89;66.78;102078.78;4963258;28;20445;-59
2022/04/14 01:34:20;;;;;;;20.13;11.93;;;;;;;12.88;67.00;102079.63;4948247;28;20465;-60
2022/04/14 01:36:45;;;;;;;19.35;11.82;;;;;;;12.87;67.14;102083.06;4953147;28;20038;-59
2022/04/14 01:39:13;;;;;;;22.08;13.23;;;;;;;12.84;67.03;102085.63;4956866;28;20051;-59
2022/04/14 01:41:39;;;;;;;22.77;13.20;;;;;;;12.80;67.28;102091.66;4961607;28;20499;-60
2022/04/14 01:44:05;;;;;;;20.15;12.68;;;;;;;12.76;67.48;102088.06;4962260;28;20069;-60
2022/04/14 01:46:30;;;;;;;23.13;13.23;;;;;;;12.69;67.33;102085.25;4952159;28;20494;-59
2022/04/14 01:48:56;;;;;;;22.30;13.27;;;;;;;12.63;67.40;102086.00;4950357;28;20160;-60
2022/04/14 01:51:21;;;;;;;24.35;13.45;;;;;;;12.58;67.85;102088.50;4948655;28;20034;-60
2022/04/14 01:53:46;;;;;;;27.67;14.23;;;;;;;12.52;67.98;102088.34;4962067;28;20177;-59
2022/04/14 01:56:11;;;;;;;23.42;13.85;;;;;;;12.48;67.88;102080.41;4955509;28;20489;-60
2022/04/14 01:58:37;;;;;;;24.27;13.80;;;;;;;12.47;68.02;102086.47;4952102;28;20790;-59
2022/04/14 02:01:02;;;;;;;24.75;14.70;;;;;;;12.40;68.45;102081.94;4951875;28;20129;-59
2022/04/14 02:03:28;;;;;;;28.23;15.27;;;;;;;12.36;68.31;102099.28;4957361;28;20060;-59
2022/04/14 02:05:53;;;;;;;25.63;14.50;;;;;;;12.33;68.63;102098.31;4955653;28;20105;-60
2022/04/14 02:08:18;;;;;;;24.83;15.32;;;;;;;12.27;68.79;102096.44;4948781;28;20046;-60
2022/04/14 02:10:44;;;;;;;25.20;14.73;;;;;;;12.26;68.80;102099.88;4956341;28;20042;-61
2022/04/14 02:13:10;;;;;;;25.88;15.85;;;;;;;12.23;68.78;102091.09;4956944;28;20671;-60
2022/04/14 02:15:35;;;;;;;27.10;15.95;;;;;;;12.17;68.79;102090.09;4958055;28;20052;-59
2022/04/14 02:18:00;;;;;;;25.13;15.70;;;;;;;12.12;69.47;102093.44;4960722;28;20050;-59
2022/04/14 02:20:26;;;;;;;25.48;15.40;;;;;;;12.12;69.26;102091.69;4956810;28;20034;-60
2022/04/14 02:22:51;;;;;;;23.73;14.65;;;;;;;12.11;69.27;102110.84;4939334;28;21559;-59
2022/04/14 02:25:16;;;;;;;25.70;15.02;;;;;;;12.10;69.30;102098.59;4954773;28;20094;-60
2022/04/14 02:27:42;;;;;;;26.05;15.38;;;;;;;12.07;69.21;102105.50;4955476;28;20702;-59
2022/04/14 02:30:08;;;;;;;26.85;15.98;;;;;;;12.02;69.26;102101.84;4960301;28;20310;-60
2022/04/14 02:32:33;;;;;;;29.02;16.42;;;;;;;11.96;69.54;102099.97;4960542;28;20472;-59
2022/04/14 02:34:58;;;;;;;25.10;16.25;;;;;;;11.92;69.44;102099.84;4952623;28;20042;-60
2022/04/14 02:37:24;;;;;;;28.75;15.40;;;;;;;11.88;69.80;102100.59;4956741;28;20042;-58
2022/04/14 02:39:49;;;;;;;28.70;15.75;;;;;;;11.84;69.94;102103.97;4952697;28;20050;-58
2022/04/14 02:42:15;;;;;;;24.30;14.43;;;;;;;11.87;69.41;102104.94;4957841;28;20038;-59
2022/04/14 02:44:40;;;;;;;24.45;15.15;;;;;;;11.89;69.89;102105.00;4957773;28;20054;-58
2022/04/14 02:47:05;;;;;;;32.50;17.58;;;;;;;11.87;69.83;102106.69;4953542;28;20785;-59
2022/04/14 02:49:31;;;;;;;31.58;17.30;;;;;;;11.81;70.09;102096.94;4943863;28;20180;-59
2022/04/14 02:51:56;;;;;;;30.05;17.33;;;;;;;11.76;70.22;102094.22;4960667;28;20137;-61
2022/04/14 02:54:24;;;;;;;31.40;17.25;;;;;;;11.75;70.15;102096.78;4957005;28;20061;-59
2022/04/14 02:56:49;;;;;;;29.88;16.77;;;;;;;11.77;70.01;102095.09;4954287;28;20499;-61
2022/04/14 02:59:15;;;;;;;30.50;17.55;;;;;;;11.74;69.82;102097.59;4961372;28;20045;-60
2022/04/14 03:01:48;;;;;;;31.33;17.77;;;;;;;11.74;70.10;102103.72;4954164;28;20492;-60
2022/04/14 03:04:13;;;;;;;32.53;18.90;;;;;;;11.70;70.43;102101.84;4958862;28;20030;-58
2022/04/14 03:06:38;;;;;;;32.30;17.92;;;;;;;11.68;70.28;102103.50;4945154;28;20658;-59
2022/04/14 03:09:04;;;;;;;30.33;17.45;;;;;;;11.64;70.35;102101.66;4941721;28;20054;-59
2022/04/14 03:11:29;;;;;;;29.30;16.95;;;;;;;11.61;69.95;102109.41;4958220;28;20054;-59
2022/04/14 03:13:54;;;;;;;31.35;16.95;;;;;;;11.60;70.16;102105.00;4952912;28;20417;-58
2022/04/14 03:16:19;;;;;;;31.02;17.13;;;;;;;11.59;70.18;102104.97;4959408;28;20757;-60
2022/04/14 03:18:45;;;;;;;29.75;17.65;;;;;;;11.54;70.51;102099.59;4948652;28;20401;-58
2022/04/14 03:21:11;;;;;;;29.90;16.98;;;;;;;11.60;70.39;102110.22;4953101;28;20092;-59
2022/04/14 03:23:39;;;;;;;32.75;18.40;;;;;;;11.57;71.01;102112.78;4959216;28;20047;-60
2022/04/14 03:26:04;;;;;;;30.92;18.52;;;;;;;11.63;70.54;102122.50;4956650;28;20046;-59
2022/04/14 03:28:29;;;;;;;33.53;19.05;;;;;;;11.57;70.89;102122.34;4958459;28;20038;-58
2022/04/14 03:30:55;;;;;;;30.80;18.92;;;;;;;11.52;70.94;102114.38;4938094;28;20484;-60
2022/04/14 03:33:20;;;;;;;32.33;17.95;;;;;;;11.49;70.62;102111.66;4956646;28;20446;-59
2022/04/14 03:35:46;;;;;;;40.78;19.00;;;;;;;11.44;70.71;102118.47;4931751;28;20439;-59
2022/04/14 03:38:11;;;;;;;33.95;18.25;;;;;;;11.41;70.42;102113.16;4961452;28;20094;-59
2022/04/14 03:40:36;;;;;;;33.92;18.27;;;;;;;11.36;70.26;102115.63;4945609;28;20356;-59
2022/04/14 03:43:02;;;;;;;32.67;17.10;;;;;;;11.34;70.67;102119.91;4944785;28;20405;-58
2022/04/14 03:45:27;;;;;;;33.15;18.95;;;;;;;11.27;70.92;102117.97;4953910;28;20053;-58
2022/04/14 03:47:52;;;;;;;31.38;17.75;;;;;;;11.26;70.86;102123.16;4953468;28;20251;-59
2022/04/14 03:50:18;;;;;;;32.05;18.17;;;;;;;11.22;71.18;102116.94;4954323;28;20350;-59
2022/04/14 03:52:44;;;;;;;33.85;18.70;;;;;;;11.21;71.11;102119.53;4960692;28;20073;-58
2022/04/14 03:55:09;;;;;;;33.08;18.92;;;;;;;11.16;71.19;102113.28;4949179;28;20162;-59
2022/04/14 03:57:35;;;;;;;34.60;19.63;;;;;;;11.18;71.29;102111.56;4958119;28;20111;-59
2022/04/14 04:00:00;;;;;;;34.17;18.48;;;;;;;11.17;71.20;102110.69;4936250;28;20065;-58
2022/04/14 04:02:26;;;;;;;32.35;17.92;;;;;;;11.20;71.02;102110.78;4949405;28;20505;-58
2022/04/14 04:04:51;;;;;;;32.17;17.90;;;;;;;11.23;71.09;102116.09;4950371;28;20133;-59
2022/04/14 04:07:16;;;;;;;33.17;18.30;;;;;;;11.24;70.97;102125.69;4949112;28;20046;-58
2022/04/14 04:09:42;;;;;;;33.35;17.30;;;;;;;11.25;71.10;102122.25;4960005;28;20549;-58
2022/04/14 04:12:07;;;;;;;31.77;18.35;;;;;;;11.25;71.08;102118.75;4961891;28;20487;-58
2022/04/14 04:14:33;;;;;;;31.73;18.45;;;;;;;11.22;70.82;102123.91;4944987;28;20133;-59
2022/04/14 04:16:58;;;;;;;28.38;17.17;;;;;;;11.20;70.69;102117.75;4955410;28;20093;-58
2022/04/14 04:19:23;;;;;;;30.23;17.60;;;;;;;11.21;70.78;102112.56;4956661;28;20050;-59
2022/04/14 04:21:49;;;;;;;33.70;18.23;;;;;;;11.18;70.89;102116.78;4962392;28;20137;-59
2022/04/14 04:24:14;;;;;;;34.83;18.25;;;;;;;11.16;71.33;102116.75;4952586;28;20113;-59
2022/04/14 04:26:39;;;;;;;33.28;17.85;;;;;;;11.17;71.16;102133.28;4957076;28;20058;-58
2022/04/14 04:29:05;;;;;;;34.85;17.73;;;;;;;11.15;71.15;102124.56;4953883;28;20454;-59
2022/04/14 04:31:30;;;;;;;34.88;17.75;;;;;;;11.14;71.25;102121.06;4965567;28;20425;-60
2022/04/14 04:33:55;;;;;;;34.78;18.70;;;;;;;11.14;71.33;102120.16;4948304;28;20042;-59
2022/04/14 04:36:21;;;;;;;34.80;18.85;;;;;;;11.10;71.30;102120.91;4950642;28;20281;-60
2022/04/14 04:38:47;;;;;;;35.13;18.50;;;;;;;11.11;71.36;102128.78;4959479;28;20046;-58
2022/04/14 04:41:12;;;;;;;34.78;18.95;;;;;;;11.10;71.28;102126.13;4947079;28;20053;-59
2022/04/14 04:43:39;;;;;;;30.85;17.95;;;;;;;11.08;71.38;102135.63;4954304;28;20587;-56
2022/04/14 04:46:04;;;;;;;33.42;18.05;;;;;;;11.08;71.75;102133.03;4958127;28;20046;-59
2022/04/14 04:48:29;;;;;;;33.60;18.00;;;;;;;11.11;71.57;102138.31;4943613;28;21210;-58
2022/04/14 04:50:56;;;;;;;34.90;20.05;;;;;;;11.09;71.68;102140.91;4948159;28;20433;-58
2022/04/14 04:53:21;;;;;;;37.63;19.77;;;;;;;11.09;72.07;102145.25;4964551;28;20701;-60
2022/04/14 04:55:46;;;;;;;34.95;19.17;;;;;;;11.03;71.75;102147.66;4958407;28;20035;-60
2022/04/14 04:58:12;;;;;;;35.67;19.50;;;;;;;11.04;72.34;102152.91;4955518;28;20042;-60
2022/04/14 05:00:37;;;;;;;35.85;19.23;;;;;;;11.05;71.96;102146.84;4953969;28;20038;-59
2022/04/14 05:03:10;;;;;;;31.05;17.60;;;;;;;11.10;71.56;102157.44;4949074;28;20228;-59
2022/04/14 05:05:36;;;;;;;32.58;17.88;;;;;;;11.13;72.25;102155.81;4955690;28;20060;-59
2022/04/14 05:08:02;;;;;;;38.28;18.90;;;;;;;11.18;72.12;102158.56;4954883;28;20046;-59
2022/04/14 05:10:28;;;;;;;36.03;19.08;;;;;;;11.23;72.46;102157.88;4959428;28;20403;-59
2022/04/14 05:12:53;;;;;;;35.10;18.33;;;;;;;11.32;72.30;102165.09;4954914;28;20626;-60
2022/04/14 05:15:19;;;;;;;38.95;20.40;;;;;;;11.37;72.43;102167.00;4952280;28;20069;-59
2022/04/14 05:17:44;;;;;;;36.40;19.00;;;;;;;11.44;72.39;102169.81;4949648;28;20441;-60
2022/04/14 05:20:09;;;;;;;39.10;18.50;;;;;;;11.52;72.09;102171.84;4961477;28;20054;-59
2022/04/14 05:22:35;;;;;;;33.92;18.65;;;;;;;11.55;71.90;102171.91;4947821;28;20045;-59
2022/04/14 05:25:02;;;;;;;34.00;19.30;;;;;;;11.66;72.22;102173.09;4947885;28;20058;-59
2022/04/14 05:27:28;;;;;;;34.30;18.10;;;;;;;11.76;72.04;102169.09;4958962;28;20452;-59
2022/04/14 05:29:53;;;;;;;35.13;19.40;;;;;;;11.87;72.18;102170.28;4955404;28;20054;-59
2022/04/14 05:32:18;;;;;;;33.92;18.45;;;;;;;11.98;71.92;102165.34;4959820;28;20082;-59
2022/04/14 05:34:44;;;;;;;32.13;17.80;;;;;;;12.12;71.87;102172.75;4941679;28;20158;-59
2022/04/14 05:37:10;;;;;;;34.88;18.77;;;;;;;12.24;71.31;102176.53;4955457;28;20062;-58
2022/04/14 05:39:35;;;;;;;35.17;18.65;;;;;;;12.35;71.25;102185.53;4958532;28;20133;-59
2022/04/14 05:42:01;;;;;;;32.15;18.02;;;;;;;12.46;70.67;102178.88;4961762;28;20041;-59
2022/04/14 05:44:26;;;;;;;30.05;17.52;;;;;;;12.58;70.35;102182.69;4954773;28;20600;-59
2022/04/14 05:46:51;;;;;;;30.33;16.92;;;;;;;12.67;69.78;102186.41;4954058;28;20297;-61
2022/04/14 05:49:18;;;;;;;31.92;17.73;;;;;;;12.72;69.43;102183.06;4961531;28;20448;-59
2022/04/14 05:51:43;;;;;;;32.08;17.52;;;;;;;12.84;69.11;102187.69;4958603;28;20295;-58
2022/04/14 05:54:09;;;;;;;28.98;16.70;;;;;;;12.94;68.85;102176.59;4958336;28;20769;-59
2022/04/14 05:56:34;;;;;;;29.05;16.65;;;;;;;13.07;68.11;102181.28;4956740;28;20585;-61
2022/04/14 05:59:00;;;;;;;31.83;16.65;;;;;;;13.23;68.10;102179.97;4948444;28;20054;-58
2022/04/14 06:01:25;;;;;;;28.73;16.27;;;;;;;13.37;67.37;102182.03;4960245;28;20382;-59
2022/04/14 06:03:51;;;;;;;29.00;16.77;;;;;;;13.49;67.27;102177.91;4951238;28;20046;-60
2022/04/14 06:06:16;;;;;;;27.80;16.13;;;;;;;13.73;67.32;102181.97;4953303;28;20069;-59
2022/04/14 06:08:43;;;;;;;24.92;14.95;;;;;;;14.02;66.69;102192.19;4947500;28;20034;-59
2022/04/14 06:11:09;;;;;;;25.13;15.30;;;;;;;14.61;66.12;102201.22;4951598;28;20053;-59
2022/04/14 06:13:35;;;;;;;25.95;13.98;;;;;;;15.64;63.69;102192.38;4948748;28;20050;-59
2022/04/14 06:16:00;;;;;;;21.25;14.18;;;;;;;16.48;58.57;102188.09;4960629;28;20052;-60
2022/04/14 06:18:25;;;;;;;22.48;13.82;;;;;;;17.17;55.71;102179.97;4955289;28;20047;-58
2022/04/14 06:20:54;;;;;;;23.48;13.70;;;;;;;17.76;54.13;102180.31;4956089;28;20054;-58
2022/04/14 06:23:19;;;;;;;25.63;14.23;;;;;;;18.63;50.93;102173.56;4949910;28;20050;-59
2022/04/14 06:25:55;;;;;;;23.42;13.15;;;;;;;19.23;49.88;102171.78;4951061;28;20058;-59
2022/04/14 06:28:20;;;;;;;20.33;12.65;;;;;;;19.98;47.36;102176.88;4957940;28;20068;-60
2022/04/14 06:30:46;;;;;;;20.45;12.18;;;;;;;20.25;48.14;102182.00;4955979;28;20626;-58
2022/04/14 06:33:12;;;;;;;18.77;12.60;;;;;;;20.36;46.75;102180.22;4944709;28;20061;-59
2022/04/14 06:35:38;;;;;;;23.27;12.63;;;;;;;20.96;45.62;102178.88;4955214;28;20042;-59
2022/04/14 06:38:03;;;;;;;18.27;11.80;;;;;;;20.69;45.83;102194.13;4954368;28;20648;-62
2022/04/14 06:40:29;;;;;;;18.95;11.82;;;;;;;21.79;44.19;102195.72;4960060;28;20052;-58
2022/04/14 06:42:54;;;;;;;18.27;12.15;;;;;;;21.35;45.23;102198.84;4948990;28;20042;-58
2022/04/14 06:45:20;;;;;;;18.20;12.13;;;;;;;21.19;43.81;102194.63;4956226;28;20487;-59
2022/04/14 06:47:45;;;;;;;18.25;11.25;;;;;;;21.21;44.04;102195.50;4957440;28;20112;-59
2022/04/14 06:50:11;;;;;;;21.60;13.07;;;;;;;20.44;46.85;102206.66;4945821;28;20449;-59
2022/04/14 06:52:38;;;;;;;17.58;12.10;;;;;;;20.27;47.64;102201.41;4950484;28;20038;-59
2022/04/14 06:55:04;;;;;;;18.08;12.07;;;;;;;20.77;47.53;102203.78;4947664;28;20159;-59
2022/04/14 06:57:29;;;;;;;19.92;12.18;;;;;;;21.60;44.98;102198.59;4951426;28;20129;-59
2022/04/14 06:59:56;;;;;;;20.70;11.82;;;;;;;22.05;43.97;102202.53;4962016;28;20567;-58
2022/04/14 07:02:21;;;;;;;17.58;10.65;;;;;;;22.69;42.43;102199.81;4919835;28;20088;-59
2022/04/14 07:04:47;;;;;;;20.85;10.40;;;;;;;22.89;40.83;102202.19;4952422;28;20042;-60
2022/04/14 07:07:16;;;;;;;18.33;11.25;;;;;;;22.22;43.24;102203.16;4943585;28;22857;-58
2022/04/14 07:09:42;;;;;;;17.60;10.52;;;;;;;22.04;44.06;102208.72;4950816;28;20520;-59
2022/04/14 07:12:08;;;;;;;18.60;10.60;;;;;;;22.74;41.95;102208.66;4957076;28;20042;-59
2022/04/14 07:14:33;;;;;;;21.40;10.27;;;;;;;22.90;40.25;102204.81;4950339;28;20055;-59
2022/04/14 07:16:59;;;;;;;18.00;10.07;;;;;;;22.75;40.46;102207.72;4947442;28;20038;-59
2022/04/14 07:19:26;;;;;;;16.63;10.00;;;;;;;22.58;41.03;102213.28;4947610;28;20058;-59
2022/04/14 07:21:53;;;;;;;17.73;9.63;;;;;;;23.44;40.08;102210.94;4950097;28;20157;-58
2022/04/14 07:24:18;;;;;;;19.90;10.00;;;;;;;23.79;38.66;102210.28;4956024;28;20282;-58
2022/04/14 07:26:47;;;;;;;18.85;9.60;;;;;;;23.90;39.14;102199.44;4960035;28;20105;-59
2022/04/14 07:29:13;;;;;;;13.48;9.05;;;;;;;24.43;38.48;102210.72;4933686;28;20085;-59
2022/04/14 07:31:41;;;;;;;17.05;9.55;;;;;;;24.55;38.00;102207.78;4959055;28;20042;-60
2022/04/14 07:34:08;;;;;;;16.63;9.57;;;;;;;24.73;38.15;102207.34;4945257;28;20050;-59
2022/04/14 07:36:34;;;;;;;14.25;9.20;;;;;;;24.77;36.86;102216.13;4952419;28;20053;-59
2022/04/14 07:39:01;;;;;;;16.90;9.80;;;;;;;24.31;38.14;102206.56;4951222;28;20070;-60
2022/04/14 07:41:26;;;;;;;18.50;10.25;;;;;;;24.03;39.24;102213.38;4954933;28;20030;-58
2022/04/14 07:43:56;;;;;;;13.98;9.00;;;;;;;24.83;36.85;102213.31;4953504;28;20508;-59
2022/04/14 07:46:21;;;;;;;16.55;8.98;;;;;;;24.48;38.94;102223.03;4950224;28;20392;-59
2022/04/14 07:48:47;;;;;;;20.42;9.23;;;;;;;24.95;38.20;102219.25;4954590;28;21009;-58
2022/04/14 07:51:12;;;;;;;19.58;9.68;;;;;;;24.71;37.44;102227.84;4945149;28;20160;-59
2022/04/14 07:53:38;;;;;;;18.73;8.95;;;;;;;24.82;37.30;102227.59;4957976;28;20054;-58
2022/04/14 07:56:06;;;;;;;14.85;8.98;;;;;;;24.80;38.01;102230.28;4939524;28;20047;-58
2022/04/14 07:58:33;;;;;;;16.35;9.10;;;;;;;24.50;38.46;102223.03;4958635;28;20047;-59
2022/04/14 08:00:58;;;;;;;16.67;9.48;;;;;;;23.65;39.98;102216.81;4951446;28;20029;-58
2022/04/14 08:03:24;;;;;;;17.05;9.88;;;;;;;23.27;40.87;102215.72;4956455;28;20504;-59
2022/04/14 08:05:49;;;;;;;16.42;9.05;;;;;;;22.38;41.76;102219.78;4963483;28;20538;-59
2022/04/14 08:08:22;;;;;;;17.30;9.85;;;;;;;21.99;44.24;102218.53;4958675;28;21113;-58
2022/04/14 08:10:49;;;;;;;18.73;9.40;;;;;;;21.51;43.87;102218.16;4954832;28;20500;-60
2022/04/14 08:13:16;;;;;;;17.08;9.55;;;;;;;20.94;45.74;102224.84;4959327;28;20251;-58
2022/04/14 08:15:42;;;;;;;17.58;10.07;;;;;;;20.47;47.03;102219.88;4948213;28;20479;-59
2022/04/14 08:18:08;;;;;;;15.65;9.70;;;;;;;20.59;47.35;102218.03;4958843;28;20525;-58
2022/04/14 08:20:35;;;;;;;15.75;9.43;;;;;;;20.54;46.98;102224.28;4959880;28;20630;-59
2022/04/14 08:23:06;;;;;;;18.42;9.50;;;;;;;20.56;49.26;102215.41;4956641;28;20042;-58
2022/04/14 08:25:34;;;;;;;16.88;9.25;;;;;;;20.87;46.44;102216.06;4949309;28;20579;-59
2022/04/14 08:28:01;;;;;;;12.80;8.52;;;;;;;20.90;48.02;102216.06;4960755;28;20034;-58
2022/04/14 08:30:29;;;;;;;12.52;7.63;;;;;;;20.97;45.73;102225.72;4956799;28;20520;-58
2022/04/14 08:32:55;;;;;;;15.00;8.27;;;;;;;21.17;45.65;102222.03;4957982;28;20030;-58
2022/04/14 08:35:22;;;;;;;12.63;7.30;;;;;;;20.91;47.36;102227.53;4952729;28;20042;-59
2022/04/14 08:37:48;;;;;;;11.32;6.50;;;;;;;20.79;45.03;102227.63;4961958;28;20482;-59
2022/04/14 08:40:17;;;;;;;12.35;6.00;;;;;;;20.87;46.62;102210.75;4959104;28;20132;-59
2022/04/14 08:42:58;;;;;;;11.13;6.18;;;;;;;21.04;45.25;102198.25;4956822;28;20030;-59
2022/04/14 08:45:26;;;;;;;14.25;6.43;;;;;;;20.80;46.48;102195.78;4961659;28;20046;-58
2022/04/14 08:47:53;;;;;;;9.65;6.25;;;;;;;20.69;46.40;102192.34;4959863;28;20139;-59
2022/04/14 08:50:18;;;;;;;12.73;6.97;;;;;;;20.81;47.84;102194.91;4944818;28;20133;-58
2022/04/14 08:52:44;;;;;;;12.00;6.88;;;;;;;21.06;44.63;102188.50;4958316;28;20043;-60
2022/04/14 08:55:14;;;;;;;10.57;6.80;;;;;;;21.11;46.49;102192.88;4923806;28;21034;-61
2022/04/14 08:57:41;;;;;;;10.32;6.90;;;;;;;21.42;44.89;102192.59;4960208;28;20501;-59
2022/04/14 09:00:08;;;;;;;13.60;6.68;;;;;;;21.78;44.74;102195.72;4950079;28;20125;-59
2022/04/14 09:02:34;;;;;;;9.90;6.57;;;;;;;21.83;43.28;102188.63;4956233;28;20056;-60
2022/04/14 09:05:01;;;;;;;11.20;7.20;;;;;;;21.72;43.03;102187.84;4949870;28;20077;-59
2022/04/14 09:07:27;;;;;;;15.05;7.60;;;;;;;22.00;42.94;102193.75;4952105;28;20038;-59
2022/04/14 09:09:52;;;;;;;20.38;7.82;;;;;;;21.95;43.90;102188.50;4959095;28;20035;-59
2022/04/14 09:12:19;;;;;;;11.88;7.35;;;;;;;22.09;43.01;102199.78;4956952;28;20394;-60
2022/04/14 09:14:46;;;;;;;13.13;7.43;;;;;;;22.00;45.06;102204.38;4945134;28;20062;-59
2022/04/14 09:17:12;;;;;;;14.27;9.00;;;;;;;21.93;44.69;102218.56;4955938;28;20081;-58
2022/04/14 09:19:38;;;;;;;12.27;8.13;;;;;;;21.98;44.81;102215.00;4953472;28;20050;-59
2022/04/14 09:22:08;;;;;;;13.75;8.93;;;;;;;21.73;45.62;102217.03;4955886;28;20049;-60
2022/04/14 09:24:50;;;;;;;14.38;8.23;;;;;;;21.94;46.50;102231.84;4955224;28;20046;-59
2022/04/14 09:27:31;;;;;;;15.82;7.70;;;;;;;22.08;44.71;102237.88;4944273;28;20061;-60
2022/04/14 09:29:59;;;;;;;12.43;7.78;;;;;;;22.44;43.83;102244.50;4961134;28;20400;-57
2022/04/14 09:32:30;;;;;;;12.10;7.18;;;;;;;22.60;43.39;102245.16;4957960;28;20718;-59
2022/04/14 09:34:58;;;;;;;10.98;5.55;;;;;;;22.74;43.47;102252.97;4951128;28;20038;-60
2022/04/14 09:37:24;;;;;;;8.65;5.80;;;;;;;22.70;42.90;102252.06;4957933;28;20137;-58
2022/04/14 09:39:50;;;;;;;10.85;6.38;;;;;;;21.98;43.42;102249.50;4956833;28;20107;-59
2022/04/14 09:42:16;;;;;;;9.95;6.25;;;;;;;21.77;44.76;102247.09;4957621;28;20038;-59
2022/04/14 09:44:41;;;;;;;11.93;6.63;;;;;;;21.60;45.49;102247.25;4948734;28;21082;-59
2022/04/14 09:47:06;;;;;;;12.40;6.45;;;;;;;21.83;45.84;102250.53;4950804;28;20524;-58
2022/04/14 09:49:39;;;;;;;12.10;5.93;;;;;;;22.13;44.93;102248.47;4959406;28;20370;-58
2022/04/14 09:52:07;;;;;;;12.00;6.45;;;;;;;22.21;42.83;102254.53;4955897;28;20105;-59
2022/04/14 09:54:32;;;;;;;10.95;6.68;;;;;;;22.31;42.29;102250.00;4960034;28;20082;-59
2022/04/14 09:56:58;;;;;;;10.20;6.30;;;;;;;22.53;42.89;102252.34;4941877;28;20038;-59
2022/04/14 09:59:25;;;;;;;12.10;6.65;;;;;;;22.75;42.87;102257.38;4959120;28;20045;-59
2022/04/14 10:02:14;;;;;;;11.32;6.47;;;;;;;22.97;41.55;102249.03;4958971;28;20073;-59
2022/04/14 10:04:41;;;;;;;10.75;6.13;;;;;;;23.18;39.74;102242.47;4951583;28;20480;-59
2022/04/14 10:07:14;;;;;;;11.30;5.40;;;;;;;23.73;40.33;102242.38;4956648;28;20291;-59
2022/04/14 10:09:50;;;;;;;;;;;;;;;24.01;39.13;102240.03;4959903;28;20289;-60
2022/04/14 10:12:16;;;;;;;10.90;6.47;;;;;;;23.80;40.00;102245.78;4960369;28;19932;-59
2022/04/14 10:14:41;;;;;;;9.25;5.30;;;;;;;23.83;41.27;102248.41;4959569;28;20073;-59
2022/04/14 10:17:08;;;;;;;10.98;5.50;;;;;;;23.63;41.47;102250.56;4921073;28;20491;-59
2022/04/14 10:19:36;;;;;;;10.45;5.03;;;;;;;23.41;41.67;102258.94;4957389;28;20046;-58
2022/04/14 10:22:03;;;;;;;9.82;5.50;;;;;;;23.10;41.99;102257.69;4954047;28;20145;-59
2022/04/14 10:24:30;;;;;;;12.70;6.10;;;;;;;22.51;42.47;102261.22;4947641;28;20042;-61
2022/04/14 10:26:56;;;;;;;11.15;6.47;;;;;;;22.09;44.14;102271.50;4950767;28;20061;-59
2022/04/14 10:29:22;;;;;;;8.95;5.63;;;;;;;22.16;45.39;102267.00;4954275;28;20162;-58
2022/04/14 10:31:53;;;;;;;11.70;5.90;;;;;;;22.19;44.77;102259.91;4959832;28;20527;-59
2022/04/14 10:34:19;;;;;;;10.15;5.57;;;;;;;22.44;44.43;102264.88;4952831;28;20485;-60
2022/04/14 10:36:46;;;;;;;9.18;6.00;;;;;;;22.48;42.13;102264.81;4948147;28;20072;-59
2022/04/14 10:39:14;;;;;;;10.25;5.70;;;;;;;22.56;42.39;102265.59;4949415;28;20305;-59
2022/04/14 10:41:44;;;;;;;9.38;5.72;;;;;;;22.61;41.13;102271.72;4960345;28;20077;-59
2022/04/14 10:44:10;;;;;;;8.57;5.20;;;;;;;22.59;42.46;102277.94;4954731;28;20098;-60
2022/04/14 10:46:40;;;;;;;10.18;5.28;;;;;;;22.55;42.83;102269.16;4964444;28;20046;-59
2022/04/14 10:49:13;;;;;;;8.63;4.82;;;;;;;22.56;42.51;102267.38;4949386;28;21319;-59
2022/04/14 10:51:39;;;;;;;8.05;4.60;;;;;;;22.61;41.73;102261.09;4965737;28;20053;-59
2022/04/14 10:54:11;;;;;;;12.20;4.85;;;;;;;22.69;41.75;102260.94;4960564;28;20899;-58
2022/04/14 10:56:37;;;;;;;7.82;4.35;;;;;;;22.58;42.47;102262.88;4960342;28;20050;-60
2022/04/14 10:59:12;;;;;;;8.37;4.30;;;;;;;22.57;42.22;102263.78;4957628;28;20068;-60
2022/04/14 11:01:47;;;;;;;7.32;4.20;;;;;;;22.30;42.72;102278.34;4965338;28;20680;-58
2022/04/14 11:04:29;;;;;;;9.00;4.40;;;;;;;22.47;42.56;102271.03;4955325;28;20054;-59
2022/04/14 11:07:08;;;;;;;8.18;4.28;;;;;;;22.57;42.38;102271.75;4956095;28;20430;-61
2022/04/14 11:09:42;;;;;;;7.25;4.80;;;;;;;22.47;41.92;102272.81;4962135;28;20042;-60